createdAt,value
2022-10-17T06:27:23.700Z,102294.56
2022-10-17T06:30:01.330Z,102299.16
2022-10-17T06:32:39.763Z,102299.13
2022-10-17T06:35:17.021Z,102302.31
2022-10-17T06:37:53.721Z,102304.69
2022-10-17T06:40:31.783Z,102311.56
2022-10-17T06:43:11.968Z,102319.97
2022-10-17T06:46:09.961Z,102317.91
2022-10-17T06:48:49.195Z,102319.28
2022-10-17T06:51:40.876Z,102317.06
2022-10-17T06:54:20.428Z,102318.41
2022-10-17T06:57:00.523Z,102319.78
2022-10-17T06:59:39.960Z,102318.47
2022-10-17T07:02:21.668Z,102319.06
2022-10-17T07:04:59.427Z,102312.44
2022-10-17T07:07:40.074Z,102317.38
2022-10-17T07:10:20.225Z,102319.53
2022-10-17T07:12:57.327Z,102322.78
2022-10-17T07:15:36.711Z,102323.34
2022-10-17T07:18:14.111Z,102316.03
2022-10-17T07:20:57.767Z,102307.59
2022-10-17T07:23:37.328Z,102319.78
2022-10-17T07:26:16.473Z,102313.22
2022-10-17T07:28:58.100Z,102313.69
2022-10-17T07:31:49.094Z,102314.91
2022-10-17T07:34:27.865Z,102313.56
2022-10-17T07:37:07.314Z,102316.63
2022-10-17T07:39:44.824Z,102314.44
2022-10-17T07:42:22.263Z,102323.75
2022-10-17T07:45:00.961Z,102327.75
2022-10-17T07:47:43.292Z,102333.38
2022-10-17T07:50:23.583Z,102330.41
2022-10-17T07:53:00.495Z,102321.94
2022-10-17T07:55:37.562Z,102319.63
2022-10-17T07:58:14.293Z,102328.00
2022-10-17T08:00:51.978Z,102325.81
2022-10-17T08:03:31.491Z,102332.16
2022-10-17T08:06:09.109Z,102333.47
2022-10-17T08:08:46.259Z,102332.00
2022-10-17T08:11:23.620Z,102319.88
2022-10-17T08:14:00.584Z,102321.03
2022-10-17T08:16:37.666Z,102302.44
2022-10-17T08:19:17.121Z,102308.88
2022-10-17T08:21:54.790Z,102309.25
2022-10-17T08:24:31.991Z,102309.34
2022-10-17T08:27:11.732Z,102301.22
2022-10-17T08:29:49.210Z,102297.50
2022-10-17T08:32:29.358Z,102305.22
2022-10-17T08:35:13.155Z,102289.03
2022-10-17T08:37:50.227Z,102288.94
2022-10-17T08:40:31.056Z,102288.78
2022-10-17T08:43:42.796Z,102281.69
2022-10-17T08:46:20.421Z,102280.38
2022-10-17T08:48:57.850Z,102267.72
2022-10-17T08:51:46.427Z,102263.41
2022-10-17T08:54:29.588Z,102280.72
2022-10-17T08:57:06.368Z,102266.25
2022-10-17T08:59:43.570Z,102274.06
2022-10-17T09:02:42.930Z,102274.47
2022-10-17T09:05:40.496Z,102276.78
2022-10-17T09:08:39.854Z,102274.19
2022-10-17T09:11:28.456Z,102266.34
2022-10-17T09:14:20.419Z,102275.38
2022-10-17T09:17:14.475Z,102263.31
2022-10-17T09:20:03.354Z,102255.75
2022-10-17T09:22:45.811Z,102255.75
2022-10-17T09:25:25.844Z,102260.75
2022-10-17T09:28:14.451Z,102254.06
2022-10-17T09:30:57.451Z,102257.94
2022-10-17T09:33:56.384Z,102256.47
2022-10-17T09:36:37.250Z,102260.63
2022-10-17T09:39:20.145Z,102254.91
2022-10-17T09:42:02.251Z,102255.00
2022-10-17T09:44:44.653Z,102255.00
2022-10-17T09:47:31.913Z,102259.41
2022-10-17T09:50:18.210Z,102253.75
2022-10-17T09:52:56.576Z,102261.69
2022-10-17T09:55:43.643Z,102262.16
2022-10-17T09:58:25.513Z,102259.91
2022-10-17T10:01:24.089Z,102257.78
2022-10-17T10:04:18.098Z,102262.31
2022-10-17T10:07:07.752Z,102258.16
2022-10-17T10:09:49.348Z,102255.72
2022-10-17T10:12:28.853Z,102255.25
2022-10-17T10:15:36.615Z,102261.75
2022-10-17T10:18:38.928Z,102259.91
2022-10-17T10:21:20.398Z,102256.84
2022-10-17T10:24:17.274Z,102247.19
2022-10-17T10:26:55.874Z,102248.88
2022-10-17T10:29:38.668Z,102244.16
2022-10-17T10:32:25.549Z,102238.22
2022-10-17T10:35:09.099Z,102243.75
2022-10-17T10:37:49.619Z,102247.28
2022-10-17T10:40:30.910Z,102251.47
2022-10-17T10:43:09.710Z,102249.25
2022-10-17T10:45:48.799Z,102243.81
2022-10-17T10:48:31.021Z,102233.75
2022-10-17T10:51:15.388Z,102232.00
2022-10-17T10:53:58.860Z,102230.38
2022-10-17T10:56:44.100Z,102224.25
2022-10-17T10:59:28.660Z,102225.19
2022-10-17T11:02:16.329Z,102228.69
2022-10-17T11:05:01.662Z,102224.50
2022-10-17T11:07:45.567Z,102215.38
2022-10-17T11:10:29.755Z,102211.88
2022-10-17T11:13:15.151Z,102212.44
2022-10-17T11:15:57.797Z,102205.81
2022-10-17T11:18:43.996Z,102203.53
2022-10-17T11:21:30.135Z,102192.31
2022-10-17T11:24:14.194Z,102184.09
2022-10-17T11:26:59.193Z,102178.53
2022-10-17T11:29:39.515Z,102169.59
2022-10-17T11:32:26.441Z,102170.34
2022-10-17T11:35:08.888Z,102176.69
2022-10-17T11:37:54.418Z,102175.00
2022-10-17T11:40:36.186Z,102169.03
2022-10-17T11:43:18.852Z,102172.19
2022-10-17T11:45:58.610Z,102169.28
2022-10-17T11:48:42.980Z,102168.34
2022-10-17T11:54:28.049Z,102153.53
2022-10-17T11:57:25.758Z,102155.47
2022-10-17T12:00:22.907Z,102138.78
2022-10-17T12:03:16.181Z,102138.69
2022-10-17T12:06:00.300Z,102134.13
2022-10-17T12:08:44.861Z,102138.31
2022-10-17T12:11:43.679Z,102133.72
2022-10-17T12:14:44.270Z,102137.72
2022-10-17T12:17:39.191Z,102132.63
2022-10-17T12:20:33.896Z,102144.28
2022-10-17T12:23:30.103Z,102134.34
2022-10-17T12:26:13.310Z,102133.38
2022-10-17T12:29:07.719Z,102122.72
2022-10-17T12:31:45.056Z,102125.31
2022-10-17T12:34:25.788Z,102116.78
2022-10-17T12:37:03.176Z,102115.09
2022-10-17T12:39:48.818Z,102113.69
2022-10-17T12:42:53.765Z,102090.06
2022-10-17T12:45:54.148Z,102088.22
2022-10-17T12:49:06.824Z,102081.97
2022-10-17T12:52:23.306Z,102076.72
2022-10-17T12:55:14.951Z,102065.53
2022-10-17T12:58:00.588Z,102056.97
2022-10-17T13:01:05.394Z,102065.47
2022-10-17T13:03:52.812Z,102044.91
2022-10-17T13:06:37.983Z,102044.22
2022-10-17T13:09:29.576Z,102049.56
2022-10-17T13:12:15.873Z,102046.50
2022-10-17T13:14:57.035Z,102052.72
2022-10-17T13:17:35.194Z,102050.81
2022-10-17T13:20:29.015Z,102050.50
2022-10-17T13:23:08.914Z,102047.66
2022-10-17T13:25:45.694Z,102037.34
2022-10-17T13:28:23.048Z,102048.72
2022-10-17T13:30:59.907Z,102044.78
2022-10-17T13:33:42.682Z,102036.84
2022-10-17T13:36:23.114Z,102032.25
2022-10-17T13:39:02.445Z,102026.50
2022-10-17T13:41:39.690Z,102027.19
2022-10-17T13:44:20.744Z,102010.97
2022-10-17T13:46:57.692Z,102010.97
2022-10-17T13:49:38.805Z,101993.72
2022-10-17T13:52:24.553Z,101998.53
2022-10-17T13:55:17.921Z,101998.16
2022-10-17T13:57:54.626Z,101979.53
2022-10-17T14:00:31.985Z,101980.84
2022-10-17T14:03:09.421Z,101975.47
2022-10-17T14:06:19.723Z,101969.66
2022-10-17T14:09:05.924Z,101966.28
2022-10-17T14:11:45.705Z,101972.97
2022-10-17T14:14:28.216Z,101968.59
2022-10-17T14:17:05.185Z,101965.72
2022-10-17T14:19:46.006Z,101968.38
2022-10-17T14:22:32.408Z,101959.50
2022-10-17T14:25:36.645Z,101962.91
2022-10-17T14:28:20.576Z,101966.38
2022-10-17T14:31:12.235Z,101954.94
2022-10-17T14:33:51.792Z,101954.75
2022-10-17T14:36:39.203Z,101947.13
2022-10-17T14:39:25.751Z,101941.34
2022-10-17T14:42:06.307Z,101944.34
2022-10-17T14:44:43.534Z,101940.09
2022-10-17T14:47:44.022Z,101947.81
2022-10-17T14:50:30.635Z,101948.13
2022-10-17T14:53:22.785Z,101947.16
2022-10-17T14:56:02.559Z,101940.84
2022-10-17T14:58:42.486Z,101945.41
2022-10-17T15:01:20.213Z,101938.91
2022-10-17T15:03:56.982Z,101941.38
2022-10-17T15:06:38.045Z,101929.88
2022-10-17T15:09:15.837Z,101932.47
2022-10-17T15:11:53.596Z,101925.69
2022-10-17T15:14:33.195Z,101930.81
2022-10-17T15:17:18.816Z,101923.19
2022-10-17T15:19:55.764Z,101919.34
2022-10-17T15:22:35.422Z,101924.06
2022-10-17T15:25:13.087Z,101924.63
2022-10-17T15:27:50.255Z,101921.56
2022-10-17T15:30:32.848Z,101914.47
2022-10-17T15:33:09.635Z,101911.06
2022-10-17T15:35:46.508Z,101922.75
2022-10-17T15:38:23.644Z,101923.03
2022-10-17T15:41:00.474Z,101914.81
2022-10-17T15:43:37.516Z,101916.81
2022-10-17T15:46:20.355Z,101913.44
2022-10-17T15:48:58.885Z,101919.72
2022-10-17T15:51:35.614Z,101929.06
2022-10-17T15:57:09.606Z,101924.53
2022-10-17T15:59:47.266Z,101926.81
2022-10-17T16:02:27.508Z,101914.94
2022-10-17T16:05:05.095Z,101920.31
2022-10-17T16:07:41.913Z,101924.31
2022-10-17T16:10:20.359Z,101908.66
2022-10-17T16:12:57.995Z,101909.97
2022-10-17T16:15:35.121Z,101909.25
2022-10-17T16:18:14.512Z,101911.09
2022-10-17T16:20:51.816Z,101914.22
2022-10-17T16:23:29.083Z,101913.81
2022-10-17T16:26:06.226Z,101908.69
2022-10-17T16:28:46.101Z,101904.31
2022-10-17T16:31:29.586Z,101903.91
2022-10-17T16:34:09.614Z,101902.88
2022-10-17T16:36:47.024Z,101894.38
2022-10-17T16:39:23.799Z,101895.41
2022-10-17T16:42:00.904Z,101897.38
2022-10-17T16:44:37.915Z,101895.53
2022-10-17T16:47:15.435Z,101892.44
2022-10-17T16:49:55.206Z,101890.56
2022-10-17T16:52:33.873Z,101892.56
2022-10-17T16:55:13.342Z,101884.63
2022-10-17T16:57:51.754Z,101873.28
2022-10-17T17:00:29.609Z,101878.94
2022-10-17T17:03:08.144Z,101881.78
2022-10-17T17:05:53.610Z,101882.66
2022-10-17T17:08:33.266Z,101874.56
2022-10-17T17:11:12.137Z,101870.16
2022-10-17T17:13:50.154Z,101866.78
2022-10-17T17:16:30.376Z,101853.47
2022-10-17T17:19:12.556Z,101847.78
2022-10-17T17:21:53.385Z,101845.84
2022-10-17T17:24:32.026Z,101849.78
2022-10-17T17:27:12.821Z,101855.47
2022-10-17T17:29:52.666Z,101851.06
2022-10-17T17:32:30.276Z,101846.66
2022-10-17T17:35:10.176Z,101842.13
2022-10-17T17:37:50.274Z,101837.88
2022-10-17T17:40:27.844Z,101829.28
2022-10-17T17:43:05.324Z,101830.81
2022-10-17T17:45:44.705Z,101833.38
2022-10-17T17:48:21.821Z,101832.50
2022-10-17T17:51:00.394Z,101831.81
2022-10-17T17:53:41.113Z,101833.53
2022-10-17T17:56:22.213Z,101822.88
2022-10-17T17:59:02.711Z,101818.34
2022-10-17T18:01:40.800Z,101825.13
2022-10-17T18:04:18.003Z,101810.88
2022-10-17T18:06:55.286Z,101816.09
2022-10-17T18:09:35.127Z,101805.06
2022-10-17T18:12:12.236Z,101803.22
2022-10-17T18:14:49.727Z,101799.38
2022-10-17T18:17:33.246Z,101794.72
2022-10-17T18:20:11.557Z,101797.09
2022-10-17T18:22:49.615Z,101795.13
2022-10-17T18:25:29.746Z,101795.53
2022-10-17T18:28:08.934Z,101788.19
2022-10-17T18:30:46.740Z,101785.06
2022-10-17T18:33:25.954Z,101785.59
2022-10-17T18:36:08.255Z,101781.50
2022-10-17T18:38:46.983Z,101774.28
2022-10-17T18:41:29.899Z,101783.47
2022-10-17T18:44:09.918Z,101778.06
2022-10-17T18:46:48.078Z,101772.41
2022-10-17T18:49:27.976Z,101768.41
2022-10-17T18:52:07.910Z,101779.19
2022-10-17T18:54:46.146Z,101770.50
2022-10-17T18:57:26.657Z,101768.38
2022-10-17T19:00:04.730Z,101779.31
2022-10-17T19:02:42.214Z,101781.41
2022-10-17T19:05:20.186Z,101780.53
2022-10-17T19:07:58.844Z,101776.44
2022-10-17T19:10:37.983Z,101782.53
2022-10-17T19:13:21.475Z,101761.09
2022-10-17T19:15:59.990Z,101770.28
2022-10-17T19:18:37.872Z,101772.53
2022-10-17T19:21:21.525Z,101763.03
2022-10-17T19:24:02.941Z,101762.28
2022-10-17T19:26:43.814Z,101761.94
2022-10-17T19:29:27.623Z,101755.13
2022-10-17T19:32:14.081Z,101763.59
2022-10-17T19:34:54.787Z,101759.59
2022-10-17T19:37:33.280Z,101746.81
2022-10-17T19:40:16.555Z,101750.22
2022-10-17T19:42:55.806Z,101753.63
